Time;durP1;ratioP1;P1;durP2;ratioP2;P2;SDS_P1;SDS_P2;PMS_P1;PMS_P2;Temp;Humidity;BMP_temperature;BMP_pressure;BME280_temperature;BME280_humidity;BME280_pressure;Samples;Min_cycle;Max_cycle;Signal;HPM_P1;HPM_P2
2022/07/03 00:00:34;;;;;;;;;1.00;1.00;;;;;19.62;45.23;101630.44;6284811;22;45268;-95
2022/07/03 00:02:59;;;;;;;;;0.00;0.00;;;;;19.57;45.56;101628.00;6310431;22;45424;-94
2022/07/03 00:05:24;;;;;;;;;1.00;1.00;;;;;19.61;46.77;101644.53;6309346;22;64419;-95
2022/07/03 00:07:50;;;;;;;;;1.50;1.00;;;;;19.51;46.26;101634.47;6284159;22;45280;-95
2022/07/03 00:10:15;;;;;;;;;1.00;1.00;;;;;19.47;46.34;101635.56;6309497;22;58520;-95
2022/07/03 00:12:41;;;;;;;;;0.75;0.75;;;;;19.43;46.52;101627.91;6310138;22;45333;-96
2022/07/03 00:15:07;;;;;;;;;1.50;1.50;;;;;19.45;47.50;101631.31;6284196;22;48247;-95
2022/07/03 00:17:32;;;;;;;;;2.50;1.00;;;;;19.40;46.36;101628.91;6337342;22;45308;-95
2022/07/03 00:19:57;;;;;;;;;1.00;1.00;;;;;19.45;46.69;101642.72;6337936;22;45282;-94
2022/07/03 00:22:25;;;;;;;;;1.00;1.00;;;;;19.42;47.09;101631.47;6310607;22;45317;-95
2022/07/03 00:24:56;;;;;;;;;1.00;1.00;;;;;19.46;46.98;101641.75;6310414;22;47058;-95
2022/07/03 00:27:24;;;;;;;;;1.75;0.00;;;;;19.44;45.71;101625.16;6310176;22;45710;-95
2022/07/03 00:29:49;;;;;;;;;1.00;1.00;;;;;19.46;46.35;101627.72;6337396;22;45260;-94
2022/07/03 00:32:22;;;;;;;;;1.00;1.00;;;;;19.45;46.40;101632.16;6310487;22;45378;-95
2022/07/03 00:34:50;;;;;;;;;0.50;0.50;;;;;19.48;45.84;101641.69;6336947;22;47136;-95
2022/07/03 00:37:16;;;;;;;;;1.25;1.25;;;;;19.44;46.45;101641.00;6338474;22;45288;-96
2022/07/03 00:39:42;;;;;;;;;1.00;1.00;;;;;19.36;46.44;101627.34;6310309;22;45251;-96
2022/07/03 00:42:09;;;;;;;;;2.00;0.75;;;;;19.32;46.74;101628.44;6284573;22;45294;-94
2022/07/03 00:44:43;;;;;;;;;2.75;1.00;;;;;19.28;46.51;101625.13;6309469;22;47319;-94
2022/07/03 00:47:08;;;;;;;;;1.00;1.00;;;;;19.34;46.22;101637.97;6336555;22;45256;-94
2022/07/03 00:49:35;;;;;;;;;1.00;1.00;;;;;19.35;46.46;101641.47;6318396;22;45222;-92
2022/07/03 00:52:03;;;;;;;;;2.00;1.00;;;;;19.30;47.19;101643.53;6284938;22;45318;-94
2022/07/03 00:54:32;;;;;;;;;1.00;1.00;;;;;19.26;46.99;101640.19;6337637;22;46352;-93
2022/07/03 00:57:00;;;;;;;;;1.00;1.00;;;;;19.25;46.07;101643.75;6310146;22;45542;-93
2022/07/03 00:59:26;;;;;;;;;1.00;1.00;;;;;19.14;46.57;101632.88;6283951;22;45222;-94
2022/07/03 01:01:56;;;;;;;;;3.00;1.00;;;;;19.10;47.09;101623.41;6310498;22;45315;-94
2022/07/03 01:04:51;;;;;;;;;1.75;1.00;;;;;19.17;47.86;101637.13;6337553;22;45366;-95
2022/07/03 01:07:41;;;;;;;;;1.00;1.00;;;;;19.10;46.85;101640.09;6310215;22;45218;-94
2022/07/03 01:10:55;;;;;;;;;2.00;1.00;;;;;19.07;46.95;101642.88;6310212;22;45342;-94
2022/07/03 01:13:31;;;;;;;;;1.00;1.00;;;;;19.06;46.39;101643.81;6210352;22;45268;-95
2022/07/03 01:16:07;;;;;;;;;1.00;1.00;;;;;19.07;47.47;101645.50;6211091;22;47111;-94
2022/07/03 01:18:40;;;;;;;;;1.00;1.00;;;;;19.01;47.54;101639.72;6160708;22;46099;-94
2022/07/03 01:21:08;;;;;;;;;3.00;1.00;;;;;18.92;47.06;101631.31;6161127;22;45381;-93
2022/07/03 01:23:52;;;;;;;;;0.50;0.50;;;;;18.97;46.94;101646.06;6186136;22;45506;-94
2022/07/03 01:26:18;;;;;;;;;1.25;1.00;;;;;18.96;48.09;101647.84;6185674;22;46289;-93
2022/07/03 01:28:45;;;;;;;;;1.50;0.75;;;;;18.86;47.49;101644.81;6160636;22;45441;-94
2022/07/03 01:31:18;;;;;;;;;1.00;1.00;;;;;18.77;47.41;101647.88;6186101;22;48964;-94
2022/07/03 01:33:45;;;;;;;;;1.00;1.00;;;;;18.68;47.57;101629.84;6185920;22;45404;-94
2022/07/03 01:36:13;;;;;;;;;2.75;1.00;;;;;18.71;47.40;101642.91;6160362;22;55079;-95
2022/07/03 01:38:42;;;;;;;;;1.00;1.00;;;;;18.58;47.99;101624.19;6210982;22;45362;-94
2022/07/03 01:41:12;;;;;;;;;1.00;1.00;;;;;18.62;47.54;101643.34;6211521;22;45212;-95
2022/07/03 01:43:55;;;;;;;;;1.75;1.50;;;;;18.51;47.82;101633.31;6210701;22;45552;-94
2022/07/03 01:46:28;;;;;;;;;3.00;1.50;;;;;18.50;48.16;101653.56;6210637;22;46472;-95
2022/07/03 01:48:54;;;;;;;;;2.25;1.00;;;;;18.52;47.95;101649.06;6179275;22;45743;-94
2022/07/03 01:51:20;;;;;;;;;1.75;1.75;;;;;18.49;48.85;101643.91;6337527;22;45221;-94
2022/07/03 01:53:47;;;;;;;;;1.25;1.00;;;;;18.36;48.15;101633.09;6310321;22;45443;-95
2022/07/03 01:56:13;;;;;;;;;3.00;2.00;;;;;18.47;48.30;101653.69;6309552;22;47464;-93
2022/07/03 01:58:38;;;;;;;;;1.75;1.50;;;;;18.38;49.21;101643.59;6309440;22;45116;-95
2022/07/03 02:01:19;;;;;;;;;1.00;1.00;;;;;18.40;48.98;101646.16;6309408;22;45175;-94
2022/07/03 02:03:51;;;;;;;;;3.00;2.00;;;;;18.33;48.54;101646.44;6309598;22;45447;-95
2022/07/03 02:07:05;;;;;;;;;3.00;2.00;;;;;18.32;48.58;101654.41;6309757;22;47107;-94
2022/07/03 02:09:37;;;;;;;;;2.50;1.25;;;;;18.31;48.65;101650.06;6180694;23;45331;-94
2022/07/03 02:12:04;;;;;;;;;2.00;2.00;;;;;18.26;48.96;101646.81;6154964;22;45168;-94
2022/07/03 02:14:36;;;;;;;;;3.25;3.00;;;;;18.27;49.38;101644.09;6154669;23;45226;-94
2022/07/03 02:17:17;;;;;;;;;4.00;3.00;;;;;18.24;49.55;101652.16;6155231;23;45673;-95
2022/07/03 02:19:58;;;;;;;;;3.00;2.00;;;;;18.23;49.63;101642.53;6155725;23;45321;-94
2022/07/03 02:22:31;;;;;;;;;3.00;3.00;;;;;18.19;50.01;101641.81;6155794;23;45304;-95
2022/07/03 02:25:03;;;;;;;;;1.25;1.25;;;;;18.17;50.88;101637.53;6155682;23;45246;-94
2022/07/03 02:27:32;;;;;;;;;2.75;2.75;;;;;18.15;50.77;101636.75;6155010;23;47264;-94
2022/07/03 02:30:07;;;;;;;;;2.00;2.00;;;;;18.10;50.94;101638.75;6155312;23;45573;-95
2022/07/03 02:32:37;;;;;;;;;3.00;1.00;;;;;18.05;49.80;101646.00;6155483;23;45345;-94
2022/07/03 02:35:08;;;;;;;;;1.25;1.25;;;;;17.96;50.44;101640.25;6155542;23;45320;-93
2022/07/03 02:37:50;;;;;;;;;2.25;2.25;;;;;17.92;50.21;101646.59;6154805;23;45356;-94
2022/07/03 02:40:26;;;;;;;;;2.00;2.00;;;;;17.96;50.80;101656.06;6130949;23;45621;-94
2022/07/03 02:43:00;;;;;;;;;3.25;2.25;;;;;17.93;50.82;101657.97;6137350;23;45229;-94
2022/07/03 02:45:33;;;;;;;;;2.50;1.00;;;;;17.86;50.33;101659.16;6282342;22;44890;-95
2022/07/03 02:48:07;;;;;;;;;2.75;2.75;;;;;17.81;50.95;101659.31;6337180;22;46109;-95
2022/07/03 02:50:34;;;;;;;;;2.75;2.00;;;;;17.77;50.98;101660.38;6299002;22;45775;-95
2022/07/03 02:53:30;;;;;;;;;3.75;3.00;;;;;17.77;51.37;101671.78;6286809;22;45343;-95
2022/07/03 02:56:05;;;;;;;;;4.00;2.75;;;;;17.73;51.03;101670.19;6300165;22;45341;-95
2022/07/03 02:58:49;;;;;;;;;2.00;2.00;;;;;17.72;51.31;101673.78;6309921;22;47541;-95
2022/07/03 03:01:33;;;;;;;;;2.00;1.75;;;;;17.69;51.94;101675.69;6337776;22;45233;-95
2022/07/03 03:04:22;;;;;;;;;2.00;2.00;;;;;17.69;50.84;101673.03;6310670;22;45305;-95
2022/07/03 03:06:54;;;;;;;;;5.00;2.00;;;;;17.70;50.65;101674.75;6309359;22;45446;-96
2022/07/03 03:09:24;;;;;;;;;1.00;1.00;;;;;17.60;50.84;101661.97;6308720;22;47255;-94
2022/07/03 03:11:50;;;;;;;;;2.50;2.50;;;;;17.59;51.39;101668.19;6335940;22;45585;-95
2022/07/03 03:14:19;;;;;;;;;2.75;2.25;;;;;17.62;52.22;101680.34;6278069;22;51955;-95
2022/07/03 03:16:50;;;;;;;;;2.00;2.00;;;;;17.46;51.78;101660.88;6278222;22;45440;-94
2022/07/03 03:19:20;;;;;;;;;2.75;2.00;;;;;17.47;52.10;101666.06;6277968;22;47288;-93
2022/07/03 03:21:58;;;;;;;;;2.00;2.00;;;;;17.44;52.22;101663.59;6305151;22;45432;-93
2022/07/03 03:24:23;;;;;;;;;2.00;2.00;;;;;17.46;52.88;101677.53;6277540;22;45198;-94
2022/07/03 03:26:48;;;;;;;;;2.00;2.00;;;;;17.38;51.63;101656.81;6278782;22;45307;-94
2022/07/03 03:29:14;;;;;;;;;2.00;2.00;;;;;17.33;52.14;101657.94;6305076;22;49413;-93
2022/07/03 03:31:40;;;;;;;;;2.75;1.50;;;;;17.26;52.54;101652.06;6279052;22;45193;-95
2022/07/03 03:34:06;;;;;;;;;3.00;1.00;;;;;17.32;52.14;101662.31;6305231;22;45232;-93
2022/07/03 03:36:31;;;;;;;;;2.00;2.00;;;;;17.33;52.14;101665.84;6279427;22;45598;-93
2022/07/03 03:38:57;;;;;;;;;4.50;2.50;;;;;17.28;52.63;101663.38;6304381;22;50267;-93
2022/07/03 03:41:22;;;;;;;;;3.25;2.00;;;;;17.24;52.46;101667.06;6278808;22;53786;-93
2022/07/03 03:43:48;;;;;;;;;3.25;1.50;;;;;17.22;52.25;101661.00;6305312;22;45334;-95
2022/07/03 03:46:14;;;;;;;;;2.00;1.75;;;;;17.19;52.07;101655.88;6279343;22;45441;-96
2022/07/03 03:48:40;;;;;;;;;1.25;1.25;;;;;17.15;52.15;101651.66;6279430;22;45464;-94
2022/07/03 03:51:07;;;;;;;;;1.00;1.00;;;;;17.18;52.96;101662.06;6278892;22;45459;-95
2022/07/03 03:53:32;;;;;;;;;1.00;1.00;;;;;17.16;52.81;101669.16;6304935;22;45269;-94
2022/07/03 03:56:03;;;;;;;;;0.50;0.50;;;;;17.02;52.65;101653.94;6253543;22;47742;-93
2022/07/03 03:58:30;;;;;;;;;2.00;1.00;;;;;17.01;52.69;101658.38;6278623;22;46435;-92
2022/07/03 04:01:00;;;;;;;;;1.25;1.25;;;;;17.11;52.50;101677.25;6279132;22;45365;-92
2022/07/03 04:03:26;;;;;;;;;2.50;1.00;;;;;17.08;52.56;101666.84;6279124;22;45217;-92
2022/07/03 04:05:52;;;;;;;;;2.75;1.00;;;;;17.03;52.84;101666.16;6279082;22;45339;-92
2022/07/03 04:08:19;;;;;;;;;1.00;1.00;;;;;17.04;53.86;101678.41;6304463;22;47024;-93
2022/07/03 04:10:44;;;;;;;;;2.00;2.00;;;;;16.98;52.69;101678.66;6279134;22;45358;-93
2022/07/03 04:13:10;;;;;;;;;3.00;1.00;;;;;16.90;53.40;101668.47;6305120;22;45328;-92
2022/07/03 04:15:35;;;;;;;;;1.75;1.00;;;;;16.99;53.67;101677.72;6302834;22;58919;-93
2022/07/03 04:18:00;;;;;;;;;1.00;1.00;;;;;16.95;52.45;101674.38;6337795;22;45781;-94
2022/07/03 04:20:26;;;;;;;;;1.00;0.25;;;;;16.94;52.91;101677.94;6283877;22;60332;-95
2022/07/03 04:22:51;;;;;;;;;2.00;1.00;;;;;16.83;52.93;101657.34;6283834;22;48095;-93
2022/07/03 04:25:17;;;;;;;;;1.00;1.00;;;;;16.91;53.07;101675.41;6310683;22;45327;-94
2022/07/03 04:27:43;;;;;;;;;1.75;1.75;;;;;16.88;53.05;101669.44;6310035;22;47065;-94
2022/07/03 04:30:10;;;;;;;;;1.00;1.00;;;;;16.99;52.98;101696.16;6284145;22;45827;-93
2022/07/03 04:32:39;;;;;;;;;2.25;2.00;;;;;16.94;52.89;101677.09;6337830;22;45455;-94
2022/07/03 04:35:05;;;;;;;;;1.00;1.00;;;;;16.98;53.46;101690.03;6284249;22;45294;-93
2022/07/03 04:37:30;;;;;;;;;1.00;1.00;;;;;16.96;53.42;101694.50;6308974;22;48432;-94
2022/07/03 04:39:56;;;;;;;;;2.00;1.00;;;;;16.90;52.44;101686.88;6310084;22;45290;-93
2022/07/03 04:42:21;;;;;;;;;1.00;1.00;;;;;17.00;53.57;101693.47;6337679;22;45234;-93
2022/07/03 04:44:46;;;;;;;;;1.25;1.25;;;;;17.00;52.80;101693.47;6309656;22;52629;-93
2022/07/03 04:47:14;;;;;;;;;1.50;1.50;;;;;17.01;52.91;101691.69;6309709;22;51608;-92
2022/07/03 04:49:39;;;;;;;;;2.00;2.00;;;;;17.09;53.64;101694.03;6310510;22;45655;-94
2022/07/03 04:52:05;;;;;;;;;2.00;1.75;;;;;17.08;53.47;101692.28;6309673;22;45223;-94
2022/07/03 04:54:30;;;;;;;;;3.25;1.00;;;;;17.08;53.06;101698.41;6310245;22;45120;-94
2022/07/03 04:56:56;;;;;;;;;1.00;1.00;;;;;17.04;53.08;101688.94;6309615;22;50633;-95
2022/07/03 04:59:21;;;;;;;;;2.00;1.25;;;;;17.14;53.39;101699.94;6309994;22;47415;-94
2022/07/03 05:01:49;;;;;;;;;1.25;1.25;;;;;17.00;53.03;101669.78;6310287;22;45204;-94
2022/07/03 05:04:14;;;;;;;;;1.00;1.00;;;;;17.09;52.99;101681.72;6310648;22;45420;-94
2022/07/03 05:06:40;;;;;;;;;2.00;2.00;;;;;17.18;52.40;101699.75;6309363;22;46964;-95
2022/07/03 05:09:05;;;;;;;;;1.00;1.00;;;;;17.20;52.98;101700.53;6283364;22;62030;-95
2022/07/03 05:11:31;;;;;;;;;2.25;1.25;;;;;17.21;53.84;101707.50;6309486;22;56376;-95
2022/07/03 05:13:56;;;;;;;;;2.25;1.75;;;;;17.08;53.32;101676.50;6309964;22;45529;-95
2022/07/03 05:16:21;;;;;;;;;1.00;1.00;;;;;17.07;53.76;101695.81;6284337;22;59134;-94
2022/07/03 05:18:47;;;;;;;;;2.00;2.00;;;;;16.95;53.24;101691.94;6314436;22;45254;-95
2022/07/03 05:21:12;;;;;;;;;1.00;1.00;;;;;16.96;53.56;101702.41;6302192;22;45231;-93
2022/07/03 05:23:38;;;;;;;;;0.25;0.25;;;;;16.94;52.99;101695.50;6310436;22;49361;-93
2022/07/03 05:26:03;;;;;;;;;0.00;0.00;;;;;16.93;53.51;101676.22;6322354;22;56792;-95
2022/07/03 05:28:28;;;;;;;;;1.25;1.00;;;;;17.17;53.36;101703.28;6311935;22;45176;-95
2022/07/03 05:30:54;;;;;;;;;2.50;0.00;;;;;17.22;54.51;101706.59;6309755;22;57354;-94
2022/07/03 05:33:19;;;;;;;;;1.75;1.75;;;;;17.17;53.73;101695.41;6309981;22;45164;-93
2022/07/03 05:35:45;;;;;;;;;1.50;0.25;;;;;17.13;53.91;101692.97;6337255;22;45465;-93
2022/07/03 05:38:10;;;;;;;;;1.00;1.00;;;;;17.13;53.64;101699.06;6309912;22;45287;-93
2022/07/03 05:40:36;;;;;;;;;2.50;1.00;;;;;17.27;53.66;101714.28;6283747;22;45230;-93
2022/07/03 05:43:01;;;;;;;;;1.50;1.50;;;;;17.20;53.47;101697.06;6310088;22;45547;-94
2022/07/03 05:45:26;;;;;;;;;1.00;1.00;;;;;17.29;53.14;101703.69;6337329;22;47808;-93
2022/07/03 05:47:52;;;;;;;;;1.00;1.00;;;;;17.29;52.92;101703.69;6337231;22;45198;-93
2022/07/03 05:50:17;;;;;;;;;1.75;1.00;;;;;17.34;53.35;101712.25;6308958;22;45380;-93
2022/07/03 05:52:42;;;;;;;;;2.25;1.00;;;;;17.36;52.76;101698.09;6309929;22;45419;-93
2022/07/03 05:55:08;;;;;;;;;2.00;2.00;;;;;17.51;52.84;101712.38;6309380;22;54004;-93
2022/07/03 05:57:33;;;;;;;;;1.50;1.50;;;;;17.54;53.17;101711.44;6310017;22;45318;-93
2022/07/03 05:59:59;;;;;;;;;1.00;1.00;;;;;17.50;53.56;101715.97;6310932;22;45396;-92
2022/07/03 06:02:24;;;;;;;;;4.00;2.00;;;;;17.52;53.31;101714.13;6309890;22;45333;-93
2022/07/03 06:04:49;;;;;;;;;1.50;1.50;;;;;17.55;53.16;101702.59;6308936;22;51747;-92
2022/07/03 06:07:16;;;;;;;;;2.00;2.00;;;;;17.57;54.34;101708.66;6336666;22;45250;-92
2022/07/03 06:09:42;;;;;;;;;1.75;1.00;;;;;17.66;53.23;101718.78;6283811;22;45263;-92
2022/07/03 06:12:08;;;;;;;;;1.00;1.00;;;;;17.69;53.58;101716.03;6309471;22;45493;-92
2022/07/03 06:14:33;;;;;;;;;3.00;1.00;;;;;17.66;53.50;101713.50;6283208;22;48292;-92
2022/07/03 06:16:58;;;;;;;;;2.00;1.00;;;;;17.70;54.13;101708.97;6283175;22;45737;-92
2022/07/03 06:19:24;;;;;;;;;3.00;1.00;;;;;17.74;54.15;101708.78;6334744;22;51190;-93
2022/07/03 06:21:49;;;;;;;;;1.00;1.00;;;;;17.77;53.92;101713.06;6309401;22;45496;-93
2022/07/03 06:24:14;;;;;;;;;1.25;1.25;;;;;17.86;53.89;101711.84;6308889;22;53131;-93
2022/07/03 06:26:40;;;;;;;;;5.25;2.00;;;;;17.97;54.12;101731.50;6308917;22;50448;-93
2022/07/03 06:29:05;;;;;;;;;4.25;2.00;;;;;17.95;54.56;101714.06;6283267;22;45643;-93
2022/07/03 06:31:31;;;;;;;;;2.00;2.00;;;;;17.99;54.73;101726.16;6309144;22;45240;-92
2022/07/03 06:33:57;;;;;;;;;2.00;2.00;;;;;17.97;55.40;101720.13;6308882;22;45281;-91
2022/07/03 06:36:22;;;;;;;;;2.50;2.00;;;;;17.90;54.80;101705.50;6283434;22;45666;-92
2022/07/03 06:38:47;;;;;;;;;1.00;0.50;;;;;17.97;54.50;101714.84;6308863;22;45304;-93
2022/07/03 06:41:12;;;;;;;;;2.00;2.00;;;;;18.10;55.51;101730.97;6336903;22;45240;-93
2022/07/03 06:43:38;;;;;;;;;2.00;2.00;;;;;18.14;54.29;101724.63;6308239;22;59053;-93
2022/07/03 06:46:04;;;;;;;;;2.00;2.00;;;;;18.14;54.43;101714.94;6308432;22;59714;-94
2022/07/03 06:48:29;;;;;;;;;4.00;2.00;;;;;18.27;54.50;101725.78;6309053;22;45286;-93
2022/07/03 06:50:54;;;;;;;;;2.75;1.00;;;;;18.32;54.39;101730.84;6308462;22;56145;-92
2022/07/03 06:53:20;;;;;;;;;1.50;1.25;;;;;18.34;54.69;101724.56;6308378;22;51022;-94
2022/07/03 06:55:45;;;;;;;;;2.00;2.00;;;;;18.45;54.01;101723.25;6309212;22;45305;-94
2022/07/03 06:58:11;;;;;;;;;1.75;1.75;;;;;18.53;53.35;101723.72;6283184;22;45247;-94
2022/07/03 07:00:38;;;;;;;;;3.75;2.00;;;;;18.66;53.69;101735.41;6309105;22;64314;-94
2022/07/03 07:03:03;;;;;;;;;3.00;3.00;;;;;18.63;53.70;101726.78;6310528;22;45225;-94
2022/07/03 07:05:29;;;;;;;;;4.50;2.00;;;;;18.71;53.68;101745.75;6338816;22;45246;-94
2022/07/03 07:07:54;;;;;;;;;4.75;3.00;;;;;18.68;53.65;101744.09;6310522;22;49033;-94
2022/07/03 07:10:20;;;;;;;;;3.75;3.00;;;;;18.67;53.89;101736.28;6284261;22;51800;-94
2022/07/03 07:12:45;;;;;;;;;4.00;2.00;;;;;18.70;53.88;101746.66;6284086;22;58334;-92
2022/07/03 07:15:10;;;;;;;;;3.25;2.75;;;;;18.69;54.41;101752.88;6335869;22;63133;-93
2022/07/03 07:17:35;;;;;;;;;2.00;2.00;;;;;18.63;53.86;101745.22;6310071;22;46588;-94
2022/07/03 07:20:01;;;;;;;;;4.00;2.00;;;;;18.61;53.60;101729.50;6337901;22;50388;-93
2022/07/03 07:22:27;;;;;;;;;3.25;2.00;;;;;18.74;53.66;101756.16;6284394;22;48377;-93
2022/07/03 07:24:52;;;;;;;;;3.00;3.00;;;;;18.73;53.43;101744.75;6310516;22;45171;-94
2022/07/03 07:27:18;;;;;;;;;1.25;1.25;;;;;18.83;53.22;101750.47;6310456;22;45362;-94
2022/07/03 07:29:43;;;;;;;;;3.00;2.00;;;;;18.89;53.52;101755.47;6310421;22;45367;-94
2022/07/03 07:32:08;;;;;;;;;1.00;0.50;;;;;18.97;52.77;101743.69;6283537;22;46889;-94
2022/07/03 07:34:34;;;;;;;;;3.25;2.00;;;;;19.04;53.13;101751.22;6284137;22;45778;-94
2022/07/03 07:36:59;;;;;;;;;3.75;2.00;;;;;19.02;53.26;101744.31;6336537;22;45253;-94
2022/07/03 07:39:25;;;;;;;;;2.75;2.00;;;;;19.10;52.58;101756.19;6338053;22;45449;-94
2022/07/03 07:41:50;;;;;;;;;2.00;2.00;;;;;19.11;52.21;101742.09;6285205;22;46972;-94
2022/07/03 07:44:15;;;;;;;;;2.50;2.00;;;;;19.22;51.76;101746.81;6310306;22;45328;-93
2022/07/03 07:46:41;;;;;;;;;2.00;2.00;;;;;19.30;51.99;101754.38;6309949;22;45476;-95
2022/07/03 07:49:06;;;;;;;;;4.25;2.00;;;;;19.25;52.37;101737.91;6283860;22;48218;-95
2022/07/03 07:51:31;;;;;;;;;2.00;2.00;;;;;19.39;52.14;101751.28;6309684;22;50021;-96
2022/07/03 07:53:57;;;;;;;;;1.75;1.75;;;;;19.38;52.36;101741.66;6310080;22;45239;-94
2022/07/03 07:56:25;;;;;;;;;2.25;2.25;;;;;19.46;52.39;101752.66;6310457;22;45251;-94
2022/07/03 07:58:51;;;;;;;;;2.50;2.50;;;;;19.57;52.13;101753.91;6310113;22;45195;-93
2022/07/03 08:06:46;;;;;;;;;3.00;2.00;;;;;19.75;51.62;101762.72;6338466;22;45273;-94
2022/07/03 08:09:11;;;;;;;;;2.00;1.00;;;;;19.75;51.11;101760.94;6310306;22;47116;-94
2022/07/03 08:11:37;;;;;;;;;3.75;3.75;;;;;19.76;51.30;101760.03;6309377;22;45388;-94
2022/07/03 08:14:04;;;;;;;;;3.00;3.00;;;;;19.82;51.58;101748.28;6283092;22;57456;-94
2022/07/03 08:16:30;;;;;;;;;3.00;2.00;;;;;19.91;51.16;101755.72;6310871;22;45266;-94
2022/07/03 08:18:55;;;;;;;;;1.00;1.00;;;;;19.95;50.45;101746.69;6310156;22;45445;-94
2022/07/03 08:21:21;;;;;;;;;4.00;3.00;;;;;20.07;50.62;101746.03;6336938;22;52572;-94
2022/07/03 08:23:46;;;;;;;;;2.75;2.00;;;;;20.13;50.88;101747.50;6310097;22;45474;-95
2022/07/03 08:26:11;;;;;;;;;3.25;3.00;;;;;20.04;50.30;101740.06;6337245;22;53502;-93
2022/07/03 08:28:37;;;;;;;;;4.00;3.00;;;;;20.03;50.38;101749.78;6309425;22;56852;-94
2022/07/03 08:31:02;;;;;;;;;2.00;2.00;;;;;19.95;50.70;101756.41;6284015;22;48261;-95
2022/07/03 08:33:28;;;;;;;;;1.75;1.50;;;;;20.11;50.66;101763.47;6283395;22;60997;-94
2022/07/03 08:35:53;;;;;;;;;1.25;1.25;;;;;20.14;50.43;101751.03;6309733;22;45258;-93
2022/07/03 08:38:19;;;;;;;;;2.00;2.00;;;;;20.17;49.90;101746.44;6309941;22;45524;-94
2022/07/03 08:40:45;;;;;;;;;3.50;2.00;;;;;20.16;50.20;101741.22;6310228;22;46446;-94
2022/07/03 08:43:10;;;;;;;;;2.50;2.50;;;;;20.23;50.06;101748.72;6310146;22;47028;-94
2022/07/03 08:45:37;;;;;;;;;1.75;1.75;;;;;20.34;50.04;101745.50;6338046;22;45265;-94
2022/07/03 08:48:04;;;;;;;;;2.75;2.25;;;;;20.43;49.66;101754.72;6310521;22;45412;-94
2022/07/03 08:50:33;;;;;;;;;2.00;2.00;;;;;20.46;49.66;101736.91;6284191;22;47178;-94
2022/07/03 08:52:59;;;;;;;;;3.00;3.00;;;;;20.56;49.77;101739.91;6310227;22;45769;-95
2022/07/03 08:55:25;;;;;;;;;3.75;1.50;;;;;20.57;49.79;101736.31;6284328;22;45220;-94
2022/07/03 08:57:50;;;;;;;;;4.00;2.00;;;;;20.73;49.34;101738.13;6310304;22;45168;-93
2022/07/03 09:00:17;;;;;;;;;2.00;2.00;;;;;20.85;48.94;101748.88;6309572;22;53312;-94
2022/07/03 09:02:45;;;;;;;;;3.50;2.75;;;;;21.05;49.02;101746.91;6337520;22;45265;-94
2022/07/03 09:05:11;;;;;;;;;4.00;3.00;;;;;21.07;48.34;101731.78;6310236;22;45287;-94
2022/07/03 09:07:40;;;;;;;;;6.00;3.00;;;;;21.27;48.56;101757.97;6309887;22;45230;-94
2022/07/03 09:10:10;;;;;;;;;4.50;3.00;;;;;21.31;48.43;101741.91;6283531;22;47155;-93
2022/07/03 09:12:36;;;;;;;;;7.00;3.75;;;;;21.41;47.98;101751.00;6309076;22;45372;-94
2022/07/03 09:15:04;;;;;;;;;4.75;4.00;;;;;21.50;47.85;101747.00;6310047;22;45373;-94
2022/07/03 09:17:30;;;;;;;;;4.50;3.25;;;;;21.61;47.86;101745.41;6310102;22;45144;-95
2022/07/03 09:19:59;;;;;;;;;2.75;2.75;;;;;21.71;47.99;101750.16;6310045;22;47150;-94
2022/07/03 09:22:25;;;;;;;;;5.00;3.00;;;;;21.83;46.96;101746.78;6288851;22;45974;-92
2022/07/03 09:24:52;;;;;;;;;2.00;2.00;;;;;21.97;47.37;101740.63;6338018;22;45269;-93
2022/07/03 09:27:19;;;;;;;;;3.50;3.50;;;;;22.24;46.23;101751.34;6309067;22;45249;-92
2022/07/03 09:30:11;;;;;;;;;4.00;4.00;;;;;22.44;46.68;101742.19;6309602;22;48135;-92
2022/07/03 09:32:36;;;;;;;;;3.00;3.00;;;;;22.61;45.64;101751.72;6304783;22;45627;-95
2022/07/03 09:35:24;;;;;;;;;3.00;2.67;;;;;22.70;45.89;101748.47;6337439;22;45257;-93
2022/07/03 09:37:58;;;;;;;;;4.50;3.75;;;;;22.78;45.49;101753.28;6309800;22;45532;-95
2022/07/03 09:40:30;;;;;;;;;5.00;4.00;;;;;22.88;44.84;101751.75;6335860;22;47108;-94
2022/07/03 09:43:05;;;;;;;;;6.00;4.00;;;;;22.94;44.92;101747.84;6309378;22;45702;-94
2022/07/03 09:45:58;;;;;;;;;6.75;5.25;;;;;22.96;44.64;101752.09;6336009;22;45238;-93
2022/07/03 09:48:31;;;;;;;;;5.00;4.00;;;;;23.03;44.69;101747.25;6309590;22;45337;-93
2022/07/03 09:51:17;;;;;;;;;6.50;5.00;;;;;23.06;44.54;101751.53;6283463;22;48105;-95
2022/07/03 09:53:49;;;;;;;;;7.00;5.25;;;;;23.02;44.33;101737.56;6337215;22;45920;-94
2022/07/03 09:56:16;;;;;;;;;3.00;3.00;;;;;22.96;43.84;101745.94;6309456;22;45400;-93
2022/07/03 09:58:41;;;;;;;;;4.25;3.75;;;;;22.90;43.06;101754.28;6309748;22;45419;-93
2022/07/03 10:01:19;;;;;;;;;5.00;5.00;;;;;22.82;43.78;101752.13;6335460;22;48428;-93
2022/07/03 10:03:47;;;;;;;;;7.25;4.00;;;;;22.82;44.02;101752.13;6309390;22;45325;-94
2022/07/03 10:06:12;;;;;;;;;7.00;5.00;;;;;22.76;44.46;101744.56;6309463;22;45341;-95
2022/07/03 10:08:39;;;;;;;;;6.25;5.00;;;;;22.79;43.72;101744.38;6284618;22;45476;-94
2022/07/03 10:11:05;;;;;;;;;4.25;4.25;;;;;22.91;43.39;101751.53;6335134;22;49875;-94
2022/07/03 10:13:30;;;;;;;;;6.00;6.00;;;;;23.02;43.55;101755.31;6309491;22;45258;-95
2022/07/03 10:15:57;;;;;;;;;3.50;3.50;;;;;23.19;43.72;101739.13;6309578;22;45187;-94
2022/07/03 10:18:22;;;;;;;;;3.75;3.50;;;;;23.44;42.70;101754.28;6309548;22;45258;-94
2022/07/03 10:20:50;;;;;;;;;2.50;2.50;;;;;23.58;41.87;101748.03;6283684;22;46842;-94
2022/07/03 10:23:16;;;;;;;;;3.75;3.00;;;;;23.65;42.19;101737.84;6309478;22;45320;-95
2022/07/03 10:25:43;;;;;;;;;5.00;3.75;;;;;23.76;41.96;101741.47;6309414;22;45310;-94
2022/07/03 10:28:11;;;;;;;;;5.00;4.00;;;;;23.92;42.36;101753.72;6337305;22;45282;-94
2022/07/03 10:30:36;;;;;;;;;4.00;4.00;;;;;23.89;40.98;101738.00;6283456;22;46931;-95
2022/07/03 10:33:02;;;;;;;;;3.00;2.00;;;;;23.90;41.25;101737.03;6309198;22;45179;-96
2022/07/03 10:35:36;;;;;;;;;4.25;4.25;;;;;24.02;40.38;101743.31;6337762;22;45270;-93
2022/07/03 10:38:01;;;;;;;;;2.00;2.00;;;;;24.11;41.24;101747.97;6311025;22;45345;-95
2022/07/03 10:46:36;;;;;;;;;3.50;3.50;;;;;24.28;39.29;101754.78;6315452;22;45335;-93
2022/07/03 10:49:10;;;;;;;;;3.75;2.75;;;;;24.40;39.52;101751.22;6283499;22;64014;-92
2022/07/03 10:51:41;;;;;;;;;3.00;2.25;;;;;24.54;38.96;101747.59;6310529;22;48442;-94
2022/07/03 10:54:16;;;;;;;;;9.50;6.50;;;;;24.61;39.14;101753.31;6337750;22;45257;-93
2022/07/03 10:57:00;;;;;;;;;2.00;2.00;;;;;24.58;38.66;101748.25;6338024;22;45348;-93
2022/07/03 10:59:31;;;;;;;;;1.50;1.50;;;;;24.64;38.58;101755.78;6338093;22;45284;-93
2022/07/03 11:02:17;;;;;;;;;2.75;2.75;;;;;24.81;38.89;101751.88;6310220;22;48421;-95
2022/07/03 11:05:03;;;;;;;;;3.00;2.00;;;;;25.08;37.48;101751.66;6336711;22;45528;-93
2022/07/03 11:07:33;;;;;;;;;3.00;3.00;;;;;25.35;39.45;101750.56;6338244;22;45271;-94
2022/07/03 11:10:14;;;;;;;;;2.00;2.00;;;;;25.68;38.12;101757.81;6310641;22;45423;-95
2022/07/03 11:12:57;;;;;;;;;2.25;1.00;;;;;26.13;36.30;101759.72;6337748;22;46942;-94
2022/07/03 11:15:49;;;;;;;;;2.50;2.00;;;;;26.37;36.09;101763.09;6338037;22;45417;-94
2022/07/03 11:18:27;;;;;;;;;2.25;2.00;;;;;26.30;35.34;101763.72;6338247;22;45327;-93
2022/07/03 11:20:52;;;;;;;;;1.75;1.00;;;;;26.13;35.66;101760.56;6310847;22;45536;-93
2022/07/03 11:23:26;;;;;;;;;4.00;1.00;;;;;26.13;36.29;101765.03;6310002;22;47044;-93
2022/07/03 11:25:56;;;;;;;;;1.00;1.00;;;;;25.93;35.76;101769.28;6310384;22;45576;-94
2022/07/03 11:28:33;;;;;;;;;1.75;1.75;;;;;25.75;36.34;101767.03;6338188;22;45190;-94
2022/07/03 11:31:16;;;;;;;;;1.50;1.00;;;;;25.99;37.02;101755.47;6337991;22;45551;-94
2022/07/03 11:33:42;;;;;;;;;3.00;1.00;;;;;26.61;36.20;101756.78;6310578;22;47186;-95
2022/07/03 11:36:31;;;;;;;;;2.25;1.25;;;;;27.06;35.07;101756.69;6310180;22;45305;-95
2022/07/03 11:38:59;;;;;;;;;2.00;2.00;;;;;27.04;34.46;101758.59;6310372;22;45278;-94
2022/07/03 11:41:26;;;;;;;;;1.00;1.00;;;;;26.93;34.65;101750.63;6310341;22;45394;-93
2022/07/03 11:43:53;;;;;;;;;2.00;1.00;;;;;26.69;34.75;101738.34;6338427;22;46396;-94